Ambanja, Madagascar
Current Conditions -  °F | °C
As of 9:00 PM on Thursday 23 Oct 2014 (Local Time) from FMNM Reporting Station
Few Clouds Few Clouds  
Wind Chill: 79°   Ceiling: Unl
Heat Index: 81°   Visibility: 6mi
Dew Point: 68°   Wind: 9mph
Humidity: 69%   Direction: 280°W
Pressure: 29.94"   Gusts: NA
Location:  13.68°S, 48.45°E
Report Text: FMNM 231800Z 28008KT 9999 FEW023 26/20 Q1014 NOSIG
Loading
Personal Weather Stations






























Interactive Weather Map
Tropical Storm Tracking
New forecast layout! Learn more

10-Day Weather Forecast

Advertisements
Track Severe Weather on mobile